»·PEaware :: UAL224 KSFO-KSAC

UAL224 :: KSFO-KSAC

FLIGHT INFORMATION

Flight Status: Arrived
Operator:
United Airlines
More flights by this operator :: More flights under this callsign
Pilot: Anonymous 12234 (12234)
Aircraft: BOEING 727-100
(B721)
More flights by this aircraft type
Origin: KSFO San Francisco Intl
United States
Destination: KSAC Sacramento Executive
United States
More flights between these airports :: More routes between these airports
Route: +SFO4 SAC
File this flight plan on PilotEdge
Remarks:
Altitude:
(Current/Filed)
7,000ft
Speed:
(Current/Filed)
304kts
Departed: 10-Aug-18 05:38 PM
Arrived: 10-Aug-18 05:59 PM
Distance/Time
Traveled:
68nm/0:21
Distance/Time
To Go:
Arrived

Flight Plot

Page will automatically refresh every two minutes.

Flight plan parsing failed; only flown route is shown


Map Options




Map Legend


Flown Route
Filed Route
Departure Airport
Arrival Airport
Navaid (VOR, NDB)
Fix

Horizontal Profiles

Position Reports

Time Latitude Longitude Heading Altitude Ground
Speed
10-Aug-18 16:56 37.619760 -122.383998 214 21ft 0kts
10-Aug-18 16:57 37.619760 -122.383998 214 21ft 0kts
10-Aug-18 16:58 37.619760 -122.383998 214 21ft 0kts
10-Aug-18 16:59 37.619760 -122.383998 214 21ft 0kts
10-Aug-18 17:00 37.619760 -122.383998 214 21ft 0kts
10-Aug-18 17:01 37.619760 -122.383998 214 21ft 0kts
10-Aug-18 17:02 37.619760 -122.383998 214 21ft 0kts
10-Aug-18 17:03 37.619760 -122.383998 214 21ft 0kts
10-Aug-18 17:04 37.619760 -122.383998 214 21ft 0kts
10-Aug-18 17:05 37.619760 -122.383998 214 21ft 0kts
10-Aug-18 17:06 37.619760 -122.383998 214 21ft 0kts
10-Aug-18 17:07 37.619760 -122.383998 214 21ft 0kts
10-Aug-18 17:08 37.619760 -122.383998 214 21ft 0kts
10-Aug-18 17:09 37.619760 -122.383998 214 21ft 0kts
10-Aug-18 17:10 37.619760 -122.383998 214 21ft 0kts
10-Aug-18 17:11 37.619760 -122.383998 214 21ft 0kts
10-Aug-18 17:12 37.619760 -122.383998 214 21ft 0kts
10-Aug-18 17:13 37.619760 -122.383998 214 21ft 0kts
10-Aug-18 17:14 37.619760 -122.383998 214 21ft 0kts
10-Aug-18 17:15 37.619760 -122.383998 214 21ft 0kts
10-Aug-18 17:16 37.619760 -122.383998 214 21ft 0kts
10-Aug-18 17:17 37.619760 -122.383998 214 21ft 0kts
10-Aug-18 17:18 37.619760 -122.383998 214 21ft 0kts
10-Aug-18 17:19 37.619760 -122.383998 214 21ft 0kts
10-Aug-18 17:20 37.619760 -122.383998 214 21ft 0kts
10-Aug-18 17:21 37.619826 -122.383942 214 21ft 2kts
10-Aug-18 17:22 37.620388 -122.383684 150 21ft 0kts
10-Aug-18 17:23 37.620451 -122.383740 146 21ft 0kts
10-Aug-18 17:24 37.620450 -122.383740 146 21ft 0kts
10-Aug-18 17:25 37.620450 -122.383740 146 21ft 0kts
10-Aug-18 17:26 37.620450 -122.383740 146 21ft 0kts
10-Aug-18 17:27 37.620450 -122.383740 146 21ft 0kts
10-Aug-18 17:28 37.620450 -122.383740 146 21ft 0kts
10-Aug-18 17:29 37.620450 -122.383740 146 21ft 0kts
10-Aug-18 17:30 37.620450 -122.383740 146 21ft 0kts
10-Aug-18 17:31 37.620442 -122.383732 146 21ft 1kts
10-Aug-18 17:32 37.618623 -122.379532 118 21ft 19kts
10-Aug-18 17:33 37.616143 -122.372619 120 21ft 24kts
10-Aug-18 17:34 37.612765 -122.365668 118 21ft 25kts
10-Aug-18 17:35 37.611380 -122.361068 37 21ft 1kts
10-Aug-18 17:36 37.610880 -122.359172 44 21ft 0kts
10-Aug-18 17:37 37.610892 -122.359156 43 21ft 1kts
10-Aug-18 17:38 37.611910 -122.358869 300 21ft 0kts
10-Aug-18 17:39 37.616992 -122.370988 296 115ft 154kts
10-Aug-18 17:40 37.638971 -122.422188 294 3411ft 217kts
10-Aug-18 17:41 37.672075 -122.498538 301 7466ft 270kts
10-Aug-18 17:42 37.710392 -122.585289 314 11023ft 320kts
10-Aug-18 17:43 37.799682 -122.590823 38 11017ft 357kts
10-Aug-18 17:44 37.870618 -122.516377 40 10979ft 325kts
10-Aug-18 17:45 37.929506 -122.442796 56 10971ft 294kts
10-Aug-18 17:46 37.964747 -122.377475 56 10960ft 277kts
10-Aug-18 17:47 38.003261 -122.305784 56 10958ft 288kts
10-Aug-18 17:48 38.049088 -122.220294 56 10951ft 313kts
10-Aug-18 17:49 38.098301 -122.128299 56 10965ft 311kts
10-Aug-18 17:50 38.140461 -122.049708 56 10939ft 291kts
10-Aug-18 17:51 38.185945 -121.970400 54 9620ft 292kts
10-Aug-18 17:52 38.230342 -121.895596 54 6767ft 288kts
10-Aug-18 17:53 38.277755 -121.815876 54 4147ft 289kts
10-Aug-18 17:54 38.323841 -121.737548 54 3836ft 253kts
10-Aug-18 17:55 38.364219 -121.670001 54 3251ft 240kts
10-Aug-18 17:56 38.403485 -121.603716 54 2429ft 235kts
10-Aug-18 17:57 38.446770 -121.549663 35 1829ft 203kts
10-Aug-18 17:58 38.484274 -121.518358 36 756ft 138kts
10-Aug-18 17:59 38.513477 -121.493902 30 32ft 60kts
10-Aug-18 18:00 38.518436 -121.489725 29 32ft 14kts
10-Aug-18 18:01 38.519121 -121.490215 278 32ft 0kts
10-Aug-18 18:02 38.519156 -121.490594 252 32ft 7kts
10-Aug-18 18:03 38.515639 -121.493703 210 32ft 18kts
10-Aug-18 18:04 38.511593 -121.497117 210 32ft 7kts
10-Aug-18 18:05 38.512166 -121.497729 307 32ft 5kts
10-Aug-18 18:06 38.512446 -121.498253 303 32ft 0kts
10-Aug-18 18:07 38.512446 -121.498253 303 32ft 0kts
10-Aug-18 18:08 38.512446 -121.498253 303 32ft 0kts
10-Aug-18 18:09 38.512446 -121.498253 303 32ft 0kts
10-Aug-18 18:10 38.512446 -121.498253 303 32ft 0kts

Navigation Log

Ident Type
Flight plan parsing failed, navigation log unavailable